Terminal Aerodrome Forecast
Issued by NWS

Home | Current Version | Previous Version | Text Only | Print | Product List | Glossary On
Versions: 1 2 3 4 5 6 7 8 9 10 11 12 13 14 15 16 17 18 19 20 21 22 23 24 25 26 27 28
000
FTUS43 KDLH 101100
TAFHIB
TAF
KHIB 101137Z 1012/1112 16003KT P6SM SCT050
     FM101600 19009KT P6SM FEW060
     FM110700 16003KT P6SM OVC100
     FM110800 16003KT P6SM VCSH BKN050 PROB30 1108/1109 6SM TS
      OVC050CB=

USA.gov is the U.S. government's official web portal to all federal, state and local government web resources and services.